Aeroporto :
LOGIN :

Iscrizione | Disclaimer

   EN    FR    IT 

 










Sommario :    VFR   VFR Marginale   IFR   IFR Intensivo   IFR Molto Intensivo
Visibilità : 
Base nubi : 
>= 8 km
>= 3000ft
5 / 8 km
1000 / 3000 ft
1500m / 5 km
500 / 1000 ft
800 / 1500m
200 / 500 ft
< 800m
< 200 ft
Simboli :   Temporali  Nebbia  Neve Forte  Precipitazioni Forti  Vento > 20 kt
SIGMETs :   Varie  Temporali  Ghiacco  Turbolenza  Onda orograficha  Ceneri Vulcaniche







- Altitudine del aeroporto : 1090 ft
- Codice IATA : CFE
- Carte del aeroporto


LFLC - Clermont-Ferrand Auvergne

ULTIMO METAR :
  • 201600Z AUTO VRB03KT CAVOK 21/04 Q1021 TEMPO VRB15G35KT 2000 TSRA FEW040 BKN055CB

METARs OBSOLETI :
  • 201530Z AUTO 12004KT CAVOK 21/04 Q1021 TEMPO VRB15G35KT 2000 TSRA FEW040 BKN055CB
  • 201500Z AUTO VRB02KT CAVOK 21/04 Q1022 TEMPO VRB15G35KT 2000 TSRA FEW040 BKN055CB
  • 201430Z AUTO 21011KT 9999 ///TCU 20/06 Q1022 TEMPO VRB15G35KT 2000 TSRA FEW040 BKN055CB
  • 201400Z AUTO VRB02KT CAVOK 18/08 Q1023 TEMPO VRB15G35KT 2000 TSRA FEW040 BKN055CB
  • 201330Z AUTO VRB03KT 9999 ///CB 18/08 Q1023 TEMPO VRB15G35KT 2000 TSRA

TAF TAF LFLC
Valido dal 20 a 15 ore il 21 a 15 ore UTC


201400Z 2015/2115 VRB03KT CAVOK
PROB40
TEMPO 2015/2018 VRB15G35KT 2000 TSRA FEW040 BKN055CB
BECMG 2100/2103 18006KT
PROB30
TEMPO 2109/2112 -SHRA SCT090TCU
ATIS : +33 4 73 62 74 38
Nessun NOTAM noto per questo aeroporto.



MetMap, La meteo Aeronautica in un colpo d'occhio ! - Copyright ORBIFLY Dicembre 2007 - Disclaimer

ORBIFLY MET'MAP TEAM :

Programmazione e sviluppo : Alexandra Zaïnal
Concezione e sviluppo : Baudouin d'Aumeries
Co-Programmazione e sviluppo : Marc-Olivier Méhu
Supporto tecnico e logistico : Manuel Goepfert
Aiuto per la traduzione : Arnaldo La Scala

Contatto : metmap@orbifly.com




FONTI E CREDITI :

   NOAA